Time;durP1;ratioP1;P1;durP2;ratioP2;P2;SDS_P1;SDS_P2;PMS_P1;PMS_P2;Temp;Humidity;BMP_temperature;BMP_pressure;BME280_temperature;BME280_humidity;BME280_pressure;Samples;Min_cycle;Max_cycle;Signal;HPM_P1;HPM_P2
2022/09/18 00:01:10;;;;;;;23.10;7.00;;;12.10;99.90;;;;;;6154869;23;20462;-78
2022/09/18 00:03:38;;;;;;;20.60;6.43;;;12.00;99.90;;;;;;6181676;23;20039;-78
2022/09/18 00:06:10;;;;;;;39.60;7.35;;;12.00;99.90;;;;;;6180835;23;20048;-78
2022/09/18 00:08:38;;;;;;;23.27;7.47;;;12.00;99.90;;;;;;6153496;23;20111;-79
2022/09/18 00:11:08;;;;;;;26.00;7.75;;;12.00;99.90;;;;;;6129180;23;20021;-78
2022/09/18 00:13:37;;;;;;;27.40;7.93;;;12.10;99.90;;;;;;6156134;23;20028;-78
2022/09/18 00:16:06;;;;;;;32.17;7.88;;;12.10;99.90;;;;;;6180928;23;20459;-79
2022/09/18 00:18:34;;;;;;;35.63;8.23;;;12.10;99.90;;;;;;6155797;23;20035;-79
2022/09/18 00:21:07;;;;;;;28.35;7.88;;;12.10;99.90;;;;;;6182700;23;20056;-77
2022/09/18 00:23:35;;;;;;;34.53;6.93;;;12.10;99.90;;;;;;6181485;23;20025;-78
2022/09/18 00:26:03;;;;;;;31.73;8.00;;;12.10;99.90;;;;;;6181044;23;20032;-78
2022/09/18 00:28:31;;;;;;;25.08;7.40;;;12.10;99.90;;;;;;6154557;23;20032;-78
2022/09/18 00:31:05;;;;;;;25.83;7.80;;;12.10;99.90;;;;;;6180595;23;20107;-77
2022/09/18 00:33:33;;;;;;;14.75;6.93;;;12.10;99.90;;;;;;6180625;23;20059;-77
2022/09/18 00:36:02;;;;;;;12.95;6.80;;;12.10;99.90;;;;;;6153856;23;20025;-77
2022/09/18 00:38:32;;;;;;;19.90;7.40;;;12.10;99.90;;;;;;6153957;23;20470;-78
2022/09/18 00:41:00;;;;;;;15.60;6.57;;;12.10;99.90;;;;;;6154997;23;20099;-77
2022/09/18 00:43:31;;;;;;;12.82;6.50;;;12.10;99.90;;;;;;6155038;23;20032;-77
2022/09/18 00:46:02;;;;;;;9.90;5.43;;;12.10;99.90;;;;;;6181229;23;20104;-77
2022/09/18 00:48:40;;;;;;;7.95;5.45;;;12.10;99.90;;;;;;6155883;23;20021;-77
2022/09/18 00:51:08;;;;;;;6.82;5.28;;;12.10;99.90;;;;;;6184084;23;20036;-77
2022/09/18 00:53:40;;;;;;;5.88;4.45;;;12.10;99.90;;;;;;6156259;23;20357;-77
2022/09/18 00:56:08;;;;;;;5.47;4.97;;;12.00;99.90;;;;;;6156634;23;20213;-77
2022/09/18 00:58:36;;;;;;;5.05;4.50;;;12.00;99.90;;;;;;6182076;23;20036;-77
2022/09/18 01:01:03;;;;;;;5.38;3.72;;;12.00;99.90;;;;;;6132774;23;20025;-76
2022/09/18 01:03:30;;;;;;;3.80;3.50;;;12.00;99.90;;;;;;6181686;23;20024;-76
2022/09/18 01:06:11;;;;;;;4.10;3.80;;;12.00;99.90;;;;;;6156741;23;20357;-78
2022/09/18 01:08:54;;;;;;;3.95;3.20;;;11.90;99.90;;;;;;6183762;23;20025;-77
2022/09/18 01:11:33;;;;;;;3.95;3.65;;;11.90;99.90;;;;;;6156384;23;20406;-77
2022/09/18 01:14:18;;;;;;;3.67;3.38;;;11.90;99.90;;;;;;6155574;23;20025;-78
2022/09/18 01:16:54;;;;;;;3.33;3.03;;;11.90;99.90;;;;;;6182362;23;20108;-78
2022/09/18 01:19:44;;;;;;;5.28;3.60;;;11.90;99.90;;;;;;6183183;23;20454;-78
2022/09/18 01:22:27;;;;;;;3.30;3.00;;;11.90;99.90;;;;;;6155322;23;20454;-77
2022/09/18 01:25:18;;;;;;;4.18;3.03;;;11.90;99.90;;;;;;6155595;23;20520;-78
2022/09/18 01:28:02;;;;;;;3.08;2.78;;;11.90;99.90;;;;;;6133418;23;20595;-78
2022/09/18 01:30:31;;;;;;;3.55;3.08;;;11.90;99.90;;;;;;6181635;23;20052;-78
2022/09/18 01:33:06;;;;;;;3.08;2.88;;;11.80;99.90;;;;;;6156110;23;20079;-78
2022/09/18 01:35:39;;;;;;;2.50;2.30;;;11.80;99.90;;;;;;6184292;23;20021;-78
2022/09/18 01:38:11;;;;;;;4.20;2.30;;;11.70;99.90;;;;;;6157144;23;20056;-77
2022/09/18 01:40:44;;;;;;;2.88;2.13;;;11.70;99.90;;;;;;6130809;23;20056;-77
2022/09/18 01:43:18;;;;;;;1.77;1.67;;;11.60;99.90;;;;;;6131073;23;20021;-78
2022/09/18 01:45:48;;;;;;;3.88;1.67;;;11.50;99.90;;;;;;6156777;23;20028;-79
2022/09/18 01:48:27;;;;;;;4.18;2.25;;;11.50;99.90;;;;;;6131230;23;20510;-77
2022/09/18 01:50:59;;;;;;;2.03;1.92;;;11.40;99.90;;;;;;6132277;23;20049;-78
2022/09/18 01:53:31;;;;;;;1.75;1.65;;;11.40;99.90;;;;;;6130536;23;20025;-77
2022/09/18 01:56:06;;;;;;;2.00;1.38;;;11.40;99.90;;;;;;6132060;23;20025;-78
2022/09/18 01:58:37;;;;;;;2.25;1.13;;;11.30;99.90;;;;;;6154776;23;20079;-77
2022/09/18 02:01:12;;;;;;;2.53;1.30;;;11.30;99.90;;;;;;6155386;23;20122;-77
2022/09/18 02:03:45;;;;;;;2.25;1.25;;;11.20;99.90;;;;;;6131502;23;20017;-77
2022/09/18 02:06:17;;;;;;;1.63;1.52;;;11.20;99.90;;;;;;6155897;23;20035;-77
2022/09/18 02:08:49;;;;;;;1.38;1.15;;;11.20;99.90;;;;;;6130714;23;20124;-77
2022/09/18 02:11:22;;;;;;;2.92;1.33;;;11.20;99.90;;;;;;6131069;23;20037;-77
2022/09/18 02:13:56;;;;;;;1.80;1.70;;;11.20;99.90;;;;;;6157448;23;20025;-77
2022/09/18 02:16:36;;;;;;;9.35;2.00;;;11.20;99.90;;;;;;6155771;23;20459;-78
2022/09/18 02:19:08;;;;;;;6.22;2.28;;;11.20;99.90;;;;;;6181982;23;20518;-78
2022/09/18 02:21:37;;;;;;;5.13;2.33;;;11.20;99.90;;;;;;6153615;23;20100;-78
2022/09/18 02:24:10;;;;;;;5.60;2.45;;;11.20;99.90;;;;;;6183595;23;20036;-78
2022/09/18 02:26:40;;;;;;;7.65;2.67;;;11.20;99.90;;;;;;6180739;23;20025;-77
2022/09/18 02:29:12;;;;;;;9.43;2.63;;;11.30;99.90;;;;;;6130371;23;20054;-77
2022/09/18 02:31:40;;;;;;;7.88;2.38;;;11.30;99.90;;;;;;6156742;23;20032;-77
2022/09/18 02:34:09;;;;;;;6.70;2.65;;;11.30;99.90;;;;;;6155959;23;20025;-77
2022/09/18 02:37:01;;;;;;;3.83;2.35;;;11.40;99.90;;;;;;6131646;23;20111;-77
2022/09/18 02:39:49;;;;;;;2.80;1.52;;;11.40;99.90;;;;;;6155602;23;20458;-76
2022/09/18 02:42:32;;;;;;;3.72;2.28;;;11.40;99.90;;;;;;6132437;23;20366;-76
2022/09/18 02:45:10;;;;;;;6.38;1.88;;;11.40;99.90;;;;;;6131027;23;20493;-78
2022/09/18 02:47:59;;;;;;;2.00;1.80;;;11.30;99.90;;;;;;6155945;23;20462;-79
2022/09/18 02:50:36;;;;;;;2.95;2.05;;;11.30;99.90;;;;;;6157251;23;20462;-77
2022/09/18 02:53:09;;;;;;;1.92;1.70;;;11.30;99.90;;;;;;6155423;23;20025;-77
2022/09/18 02:55:43;;;;;;;;;;;11.40;99.90;;;;;;6157131;23;20025;-73
2022/09/18 02:58:17;;;;;;;3.58;1.88;;;11.40;99.90;;;;;;6129597;23;19947;-74
2022/09/18 03:00:50;;;;;;;3.45;1.83;;;11.40;99.90;;;;;;6156399;23;20029;-74
2022/09/18 03:03:27;;;;;;;;;;;11.40;99.90;;;;;;6130111;23;20036;-73
2022/09/18 03:05:58;;;;;;;2.30;1.13;;;11.40;99.90;;;;;;6129852;23;19926;-74
2022/09/18 03:08:25;;;;;;;1.40;1.27;;;11.40;99.90;;;;;;6154303;23;20021;-73
2022/09/18 03:10:53;;;;;;;1.73;1.23;;;11.40;99.90;;;;;;6155684;23;20103;-74
2022/09/18 03:13:20;;;;;;;1.23;1.13;;;11.30;99.90;;;;;;6129040;23;20374;-74
2022/09/18 03:15:49;;;;;;;1.40;1.30;;;11.30;99.90;;;;;;6154651;23;20021;-75
2022/09/18 03:18:19;;;;;;;2.58;1.40;;;11.30;99.90;;;;;;6155523;23;20030;-75
2022/09/18 03:20:46;;;;;;;1.75;1.50;;;11.30;99.90;;;;;;6130549;23;20454;-74
2022/09/18 03:23:13;;;;;;;2.17;1.50;;;11.30;99.90;;;;;;6154686;23;20056;-74
2022/09/18 03:25:42;;;;;;;1.83;1.50;;;11.30;99.90;;;;;;6131847;23;20057;-74
2022/09/18 03:28:10;;;;;;;3.30;1.60;;;11.30;99.90;;;;;;6156127;23;20394;-74
2022/09/18 03:30:40;;;;;;;2.15;1.75;;;11.20;99.90;;;;;;6155042;23;20335;-74
2022/09/18 03:33:10;;;;;;;2.53;2.10;;;11.30;99.90;;;;;;6155186;23;20104;-74
2022/09/18 03:35:37;;;;;;;3.67;2.30;;;11.20;99.90;;;;;;6182994;23;20355;-75
2022/09/18 03:38:05;;;;;;;3.03;2.40;;;11.30;99.90;;;;;;6156713;23;20071;-74
2022/09/18 03:40:32;;;;;;;3.42;3.13;;;11.30;99.90;;;;;;6154642;23;20069;-74
2022/09/18 03:43:04;;;;;;;3.40;3.13;;;11.30;99.90;;;;;;6179887;23;20103;-74
2022/09/18 03:45:32;;;;;;;4.70;3.35;;;11.20;99.90;;;;;;6182254;23;20339;-74
2022/09/18 03:48:00;;;;;;;5.15;3.47;;;11.20;99.90;;;;;;6154721;23;20354;-75
2022/09/18 03:50:30;;;;;;;4.32;3.92;;;11.20;99.90;;;;;;6180696;23;20021;-75
2022/09/18 03:52:57;;;;;;;4.63;4.03;;;11.30;99.90;;;;;;6154982;23;20024;-75
2022/09/18 03:55:49;;;;;;;5.40;4.75;;;11.20;99.90;;;;;;6170248;23;20481;-74
2022/09/18 03:58:35;;;;;;;5.93;4.88;;;11.20;99.90;;;;;;6179645;23;20032;-75
2022/09/18 04:01:13;;;;;;;5.13;4.63;;;11.10;99.90;;;;;;6154049;23;20136;-74
2022/09/18 04:04:10;;;;;;;6.15;5.30;;;11.10;99.90;;;;;;6127107;23;20105;-75
2022/09/18 04:07:07;;;;;;;7.60;5.80;;;11.20;99.90;;;;;;6168664;23;20108;-76
2022/09/18 04:09:40;;;;;;;7.10;6.53;;;11.20;99.90;;;;;;6154421;23;20403;-74
2022/09/18 04:12:07;;;;;;;9.13;6.78;;;11.20;99.90;;;;;;6154390;23;20406;-75
2022/09/18 04:14:35;;;;;;;7.43;6.72;;;11.20;99.90;;;;;;6131194;23;20029;-75
2022/09/18 04:17:03;;;;;;;10.48;7.43;;;11.20;99.90;;;;;;6153546;23;20366;-75
2022/09/18 04:19:31;;;;;;;9.50;7.20;;;11.20;99.90;;;;;;6153827;23;20069;-74
2022/09/18 04:21:59;;;;;;;9.73;8.10;;;11.30;99.90;;;;;;6128736;23;20462;-74
2022/09/18 04:24:27;;;;;;;11.52;8.38;;;11.20;99.90;;;;;;6130639;23;20021;-74
2022/09/18 04:26:56;;;;;;;10.40;7.85;;;11.30;99.90;;;;;;6153011;23;20427;-75
2022/09/18 04:29:26;;;;;;;8.88;7.97;;;11.30;99.90;;;;;;6153144;23;20021;-75
2022/09/18 04:31:53;;;;;;;8.98;7.93;;;11.20;99.90;;;;;;6155076;23;20021;-74
2022/09/18 04:34:22;;;;;;;9.25;8.35;;;11.20;99.90;;;;;;6130130;23;20027;-75
2022/09/18 04:36:50;;;;;;;9.35;8.18;;;11.30;99.90;;;;;;6130577;23;20032;-74
2022/09/18 04:39:18;;;;;;;10.32;8.05;;;11.30;99.90;;;;;;6155606;23;20343;-74
2022/09/18 04:41:50;;;;;;;10.05;7.72;;;11.30;99.90;;;;;;6155864;23;20196;-74
2022/09/18 04:44:19;;;;;;;10.50;8.38;;;11.30;99.90;;;;;;6153656;23;20025;-74
2022/09/18 04:46:47;;;;;;;9.43;7.28;;;11.30;99.90;;;;;;6154225;23;20028;-74
2022/09/18 04:49:17;;;;;;;9.23;7.60;;;11.40;99.90;;;;;;6155589;23;20021;-74
2022/09/18 04:51:45;;;;;;;9.55;8.55;;;11.40;99.90;;;;;;6131296;23;20112;-74
2022/09/18 04:54:14;;;;;;;8.23;7.45;;;11.40;99.90;;;;;;6178330;23;20052;-75
2022/09/18 04:56:42;;;;;;;9.70;7.78;;;11.40;99.90;;;;;;6154351;23;20344;-74
2022/09/18 04:59:11;;;;;;;8.73;7.85;;;11.50;99.90;;;;;;6154011;23;20414;-75
2022/09/18 05:01:43;;;;;;;11.90;9.23;;;11.50;99.90;;;;;;6155816;23;20404;-75
2022/09/18 05:04:12;;;;;;;10.95;8.48;;;11.50;99.90;;;;;;6153835;23;20020;-75
2022/09/18 05:06:58;;;;;;;13.90;9.50;;;11.50;99.90;;;;;;6179936;23;20017;-73
2022/09/18 05:09:25;;;;;;;10.02;9.00;;;11.50;99.90;;;;;;6155012;23;20017;-75
2022/09/18 05:11:53;;;;;;;9.63;8.55;;;11.50;99.90;;;;;;6154278;23;20025;-75
2022/09/18 05:14:24;;;;;;;10.20;8.80;;;11.50;99.90;;;;;;6130392;23;20406;-76
2022/09/18 05:16:56;;;;;;;;;;;11.40;99.90;;;;;;6155424;23;20319;-75
2022/09/18 05:19:34;;;;;;;11.15;8.45;;;11.50;99.90;;;;;;6180714;23;19943;-76
2022/09/18 05:22:14;;;;;;;8.95;7.85;;;11.50;99.90;;;;;;6154178;23;20095;-76
2022/09/18 05:24:46;;;;;;;9.23;8.32;;;11.50;99.90;;;;;;6179996;23;20386;-76
2022/09/18 05:27:14;;;;;;;8.95;8.00;;;11.50;99.90;;;;;;6155812;23;20020;-77
2022/09/18 05:29:47;;;;;;;10.10;7.60;;;11.50;99.90;;;;;;6181541;23;20025;-80
2022/09/18 05:32:19;;;;;;;10.05;8.50;;;11.60;99.90;;;;;;6130638;23;20091;-78
2022/09/18 05:34:48;;;;;;;13.65;8.60;;;11.60;99.90;;;;;;6156280;23;20128;-78
2022/09/18 05:37:17;;;;;;;9.00;6.82;;;11.60;99.90;;;;;;6131735;23;20454;-79
2022/09/18 05:39:48;;;;;;;7.07;6.10;;;11.60;99.90;;;;;;6155983;23;20021;-77
2022/09/18 05:42:15;;;;;;;6.75;6.10;;;11.70;99.90;;;;;;6130911;23;20017;-74
2022/09/18 05:44:44;;;;;;;9.55;5.75;;;11.80;99.90;;;;;;6131964;23;20021;-76
2022/09/18 05:47:20;;;;;;;5.57;4.68;;;11.90;99.90;;;;;;6157682;23;20454;-75
2022/09/18 05:49:48;;;;;;;5.30;4.20;;;12.00;99.90;;;;;;6155231;23;20108;-75
2022/09/18 05:52:18;;;;;;;6.53;4.30;;;12.10;99.90;;;;;;6155588;23;20036;-76
2022/09/18 05:54:46;;;;;;;8.07;4.20;;;12.20;99.90;;;;;;6157471;23;20056;-75
2022/09/18 05:57:13;;;;;;;5.20;4.30;;;12.30;99.90;;;;;;6157468;23;20554;-74
2022/09/18 05:59:40;;;;;;;4.22;3.85;;;12.40;99.90;;;;;;6155717;23;20031;-75
2022/09/18 06:02:10;;;;;;;5.43;3.63;;;12.60;99.90;;;;;;6156692;23;20820;-75
2022/09/18 06:04:59;;;;;;;8.50;3.90;;;12.80;99.90;;;;;;6183581;23;20052;-74
2022/09/18 06:07:28;;;;;;;12.32;3.65;;;13.10;99.90;;;;;;6181912;23;20079;-74
2022/09/18 06:09:57;;;;;;;5.47;3.10;;;13.30;99.90;;;;;;6156096;23;20079;-80
2022/09/18 06:12:26;;;;;;;2.97;2.60;;;13.50;99.90;;;;;;6156186;23;20459;-79
2022/09/18 06:14:54;;;;;;;4.85;3.33;;;13.70;99.90;;;;;;6183645;23;20021;-80
2022/09/18 06:17:21;;;;;;;2.60;2.40;;;13.80;99.90;;;;;;6154100;23;20120;-80
2022/09/18 06:19:51;;;;;;;3.40;2.72;;;13.80;99.90;;;;;;6156157;23;20029;-80
2022/09/18 06:22:20;;;;;;;5.95;2.80;;;13.70;99.90;;;;;;6130439;23;20332;-77
2022/09/18 06:24:47;;;;;;;5.53;2.70;;;13.70;99.90;;;;;;6129482;23;20028;-78
2022/09/18 06:27:18;;;;;;;5.25;3.08;;;13.70;99.90;;;;;;6152142;23;20025;-79
2022/09/18 06:29:49;;;;;;;7.43;2.50;;;13.60;99.90;;;;;;6180684;23;20366;-80
2022/09/18 06:32:28;;;;;;;6.53;2.40;;;13.60;99.90;;;;;;6154303;23;20422;-75
2022/09/18 06:34:56;;;;;;;5.85;2.25;;;13.70;99.90;;;;;;6153490;23;20021;-75
2022/09/18 06:37:26;;;;;;;3.75;2.55;;;13.80;99.90;;;;;;6153449;23;20045;-74
2022/09/18 06:40:25;;;;;;;2.95;2.20;;;13.90;99.90;;;;;;6128354;23;20620;-78
2022/09/18 06:43:11;;;;;;;3.80;2.58;;;14.00;99.90;;;;;;6179514;23;20563;-78
2022/09/18 06:46:11;;;;;;;4.18;3.00;;;14.00;99.90;;;;;;6155544;23;20028;-74
2022/09/18 06:48:43;;;;;;;4.47;2.13;;;14.20;99.90;;;;;;6155908;23;20017;-77
2022/09/18 06:51:12;;;;;;;3.92;2.30;;;14.40;99.90;;;;;;6178617;23;20025;-78
2022/09/18 06:54:01;;;;;;;5.63;2.22;;;14.40;99.90;;;;;;6155648;23;20363;-79
2022/09/18 06:56:28;;;;;;;3.33;2.42;;;14.30;99.90;;;;;;6131795;23;20021;-79
2022/09/18 06:58:56;;;;;;;7.05;2.58;;;14.40;99.90;;;;;;6177849;23;20028;-80
2022/09/18 07:01:24;;;;;;;9.02;2.45;;;14.90;99.90;;;;;;6131778;23;20080;-74
2022/09/18 07:04:04;;;;;;;3.22;2.20;;;15.70;99.90;;;;;;6155130;23;20099;-79
2022/09/18 07:06:44;;;;;;;4.00;2.00;;;16.40;99.90;;;;;;6156217;23;20025;-81
2022/09/18 07:09:15;;;;;;;7.70;1.92;;;16.90;99.90;;;;;;6157385;23;20025;-84
2022/09/18 07:11:54;;;;;;;6.85;1.55;;;17.60;99.90;;;;;;6183018;23;20048;-79
2022/09/18 07:14:31;;;;;;;5.03;2.00;;;17.50;99.90;;;;;;6155485;23;20112;-81
2022/09/18 07:17:09;;;;;;;1.75;1.52;;;16.80;99.90;;;;;;6156590;23;20048;-80
2022/09/18 07:19:37;;;;;;;3.03;1.40;;;16.20;99.90;;;;;;6130405;23;20025;-80
2022/09/18 07:22:06;;;;;;;1.30;1.20;;;16.10;99.90;;;;;;6132203;23;20059;-79
2022/09/18 07:24:40;;;;;;;2.13;1.40;;;15.80;99.90;;;;;;6156125;23;20031;-78
2022/09/18 07:27:09;;;;;;;3.83;1.45;;;15.80;99.90;;;;;;6156128;23;20025;-75
2022/09/18 07:29:38;;;;;;;4.93;1.13;;;15.70;99.90;;;;;;6183775;23;20031;-75
2022/09/18 07:32:06;;;;;;;2.03;1.42;;;15.70;99.90;;;;;;6156036;23;20048;-77
2022/09/18 07:34:34;;;;;;;1.90;1.67;;;16.20;99.90;;;;;;6155017;23;20327;-74
2022/09/18 07:37:02;;;;;;;1.67;1.40;;;16.30;99.90;;;;;;6180019;23;20025;-76
2022/09/18 07:39:31;;;;;;;1.70;1.60;;;16.10;99.90;;;;;;6153445;23;20426;-74
2022/09/18 07:42:33;;;;;;;4.18;1.42;;;15.90;99.90;;;;;;6180759;23;20025;-76
2022/09/18 07:45:12;;;;;;;1.30;1.20;;;15.80;99.90;;;;;;6180849;23;20037;-80
2022/09/18 07:47:40;;;;;;;2.10;1.42;;;15.60;99.90;;;;;;6155734;23;20017;-81
2022/09/18 07:50:14;;;;;;;2.45;1.58;;;15.50;99.90;;;;;;6155296;23;20361;-81
2022/09/18 07:52:50;;;;;;;1.92;1.83;;;15.30;99.90;;;;;;6156156;23;20025;-80
2022/09/18 07:55:26;;;;;;;1.45;1.35;;;15.00;99.90;;;;;;6153727;23;20025;-76
2022/09/18 07:58:01;;;;;;;2.85;1.73;;;14.90;99.90;;;;;;6156159;23;20411;-73
2022/09/18 08:00:55;;;;;;;2.25;1.52;;;14.80;99.90;;;;;;6182090;23;20338;-76
2022/09/18 08:03:25;;;;;;;3.10;1.80;;;14.70;99.90;;;;;;6155707;23;20017;-74
2022/09/18 08:05:59;;;;;;;2.10;1.58;;;14.60;99.90;;;;;;6129287;23;20024;-74
2022/09/18 08:08:28;;;;;;;1.45;1.35;;;14.60;99.90;;;;;;6124540;23;20055;-76
2022/09/18 08:11:04;;;;;;;3.40;1.38;;;14.70;99.90;;;;;;6153603;23;20071;-75
2022/09/18 08:13:52;;;;;;;2.38;1.70;;;14.70;99.90;;;;;;6171976;23;20036;-76
2022/09/18 08:16:41;;;;;;;4.25;1.73;;;15.00;99.90;;;;;;6155434;23;20845;-80
2022/09/18 08:19:29;;;;;;;3.97;2.28;;;15.20;99.90;;;;;;6180655;23;20029;-76
2022/09/18 08:22:08;;;;;;;3.80;2.30;;;15.90;99.90;;;;;;6154452;23;20517;-74
2022/09/18 08:25:08;;;;;;;7.93;2.20;;;16.60;99.90;;;;;;6155963;23;20032;-75
2022/09/18 08:27:36;;;;;;;4.43;2.47;;;17.10;99.90;;;;;;6116773;23;20028;-81
2022/09/18 08:30:08;;;;;;;3.90;2.75;;;17.20;99.90;;;;;;6178607;23;20033;-81
2022/09/18 08:32:36;;;;;;;6.28;2.00;;;16.90;99.90;;;;;;6181042;23;20027;-81
2022/09/18 08:35:05;;;;;;;3.38;1.88;;;16.90;99.90;;;;;;6155219;23;20465;-81
2022/09/18 08:37:44;;;;;;;2.67;1.13;;;17.00;99.90;;;;;;6152287;23;20021;-81
2022/09/18 08:41:01;;;;;;;3.45;1.88;;;17.40;99.90;;;;;;6177497;23;20025;-81
2022/09/18 08:43:58;;;;;;;2.08;1.05;;;18.20;99.90;;;;;;6177097;23;20025;-78
2022/09/18 08:46:36;;;;;;;3.05;1.33;;;18.20;99.90;;;;;;6149245;23;20109;-81
2022/09/18 08:49:23;;;;;;;3.47;0.95;;;18.30;99.90;;;;;;6125933;23;20024;-76
2022/09/18 08:52:00;;;;;;;1.20;1.08;;;17.80;99.90;;;;;;6124217;23;20028;-75
2022/09/18 08:54:44;;;;;;;1.63;1.52;;;17.30;99.90;;;;;;6149156;23;20021;-75
2022/09/18 08:57:38;;;;;;;2.80;1.40;;;16.80;99.90;;;;;;6174209;23;20029;-75
2022/09/18 09:00:20;;;;;;;2.22;1.60;;;16.30;99.90;;;;;;6151688;23;20108;-80
2022/09/18 09:03:26;;;;;;;5.28;2.28;;;16.00;99.90;;;;;;6169228;23;20485;-75
2022/09/18 09:06:02;;;;;;;2.92;2.58;;;15.80;99.90;;;;;;6148924;23;20056;-78
2022/09/18 09:08:58;;;;;;;2.83;2.47;;;15.80;99.90;;;;;;6176361;23;20111;-80
2022/09/18 09:11:48;;;;;;;3.92;3.03;;;16.50;99.90;;;;;;6152296;23;20051;-77
2022/09/18 09:14:35;;;;;;;3.85;3.28;;;17.70;99.90;;;;;;6176975;23;20393;-80
2022/09/18 09:17:11;;;;;;;3.67;3.25;;;18.90;99.90;;;;;;6175583;23;20358;-82
2022/09/18 09:19:54;;;;;;;4.72;2.90;;;19.80;99.90;;;;;;6152561;23;20025;-82
2022/09/18 09:22:36;;;;;;;5.63;3.00;;;20.10;99.90;;;;;;6150976;23;20099;-78
2022/09/18 09:25:20;;;;;;;8.38;3.35;;;20.30;99.90;;;;;;6150761;23;20083;-76
2022/09/18 09:28:11;;;;;;;10.82;3.95;;;20.70;99.90;;;;;;6149634;23;20765;-74
2022/09/18 09:31:24;;;;;;;10.65;4.03;;;20.60;99.90;;;;;;6143371;23;20025;-77
2022/09/18 09:34:33;;;;;;;4.95;2.90;;;20.30;99.90;;;;;;6112992;23;20045;-79
2022/09/18 09:37:16;;;;;;;4.10;3.72;;;19.90;99.90;;;;;;6168575;23;20024;-77
2022/09/18 09:39:50;;;;;;;3.08;2.88;;;19.60;99.90;;;;;;6055189;23;20076;-76
2022/09/18 09:42:24;;;;;;;3.33;3.10;;;19.20;99.90;;;;;;6173814;23;20021;-76
2022/09/18 09:44:57;;;;;;;6.00;5.15;;;18.70;99.90;;;;;;6152501;23;20020;-83
2022/09/18 09:47:34;;;;;;;3.60;3.30;;;18.30;99.90;;;;;;6151795;23;20056;-83
2022/09/18 09:50:18;;;;;;;4.88;3.50;;;18.00;99.90;;;;;;6177717;23;20020;-84
2022/09/18 09:52:48;;;;;;;5.28;4.03;;;17.60;99.90;;;;;;6151583;23;20115;-84
2022/09/18 09:55:28;;;;;;;4.95;3.47;;;17.40;99.90;;;;;;6153080;23;20336;-84
2022/09/18 09:58:10;;;;;;;3.55;3.25;;;17.30;99.90;;;;;;6127704;23;20021;-83
2022/09/18 10:00:48;;;;;;;5.30;3.17;;;17.30;99.90;;;;;;6150339;23;20025;-82
2022/09/18 10:03:31;;;;;;;3.25;2.95;;;17.20;99.90;;;;;;6126429;23;20036;-76
2022/09/18 10:06:14;;;;;;;5.70;3.65;;;17.10;99.90;;;;;;6174526;23;20033;-76
2022/09/18 10:08:50;;;;;;;3.50;3.20;;;17.00;99.90;;;;;;6152784;23;20032;-72
2022/09/18 10:11:19;;;;;;;7.88;3.92;;;16.80;99.90;;;;;;6127163;23;20486;-73
2022/09/18 10:14:01;;;;;;;5.45;3.65;;;16.80;99.90;;;;;;6152662;23;20128;-75
2022/09/18 10:16:35;;;;;;;8.48;3.65;;;16.90;99.90;;;;;;6151900;23;20032;-75
2022/09/18 10:19:04;;;;;;;3.80;3.40;;;16.90;99.90;;;;;;6126506;23;20036;-75
2022/09/18 10:21:35;;;;;;;4.68;3.30;;;17.00;99.90;;;;;;6175566;23;20116;-74
2022/09/18 10:24:22;;;;;;;9.18;4.13;;;17.00;99.90;;;;;;6151769;23;20079;-75
2022/09/18 10:26:59;;;;;;;10.07;3.97;;;16.90;99.90;;;;;;6174955;23;20068;-76
2022/09/18 10:29:27;;;;;;;6.88;3.55;;;17.00;99.90;;;;;;6150013;23;20025;-79
2022/09/18 10:32:01;;;;;;;4.25;3.17;;;17.10;99.90;;;;;;6174541;23;20025;-74
2022/09/18 10:34:43;;;;;;;4.28;3.40;;;17.30;99.90;;;;;;6151392;23;20021;-73
2022/09/18 10:37:18;;;;;;;4.32;2.92;;;17.50;99.90;;;;;;6175015;23;20029;-74
2022/09/18 10:39:56;;;;;;;3.47;3.17;;;17.50;99.90;;;;;;6150746;23;20025;-73
2022/09/18 10:42:27;;;;;;;4.05;3.00;;;17.70;99.90;;;;;;6150404;23;20140;-74
2022/09/18 10:45:07;;;;;;;8.50;3.50;;;17.90;99.90;;;;;;6125024;23;20032;-74
2022/09/18 10:47:37;;;;;;;4.50;3.83;;;17.80;99.90;;;;;;6176564;23;20060;-74
2022/09/18 10:50:17;;;;;;;4.75;3.70;;;17.80;99.90;;;;;;6151844;23;20063;-81
2022/09/18 10:52:48;;;;;;;5.47;3.88;;;17.60;99.90;;;;;;6151312;23;20021;-81
2022/09/18 10:55:27;;;;;;;3.95;3.53;;;17.50;99.90;;;;;;6147320;23;20024;-81
2022/09/18 10:58:13;;;;;;;5.75;3.88;;;17.50;99.90;;;;;;6148404;23;20029;-75
2022/09/18 11:00:52;;;;;;;5.57;3.17;;;17.60;99.90;;;;;;6150610;23;20095;-74
2022/09/18 11:03:36;;;;;;;3.78;3.47;;;17.90;99.90;;;;;;6176274;23;20544;-74
2022/09/18 11:06:07;;;;;;;4.53;3.25;;;18.10;99.90;;;;;;6148756;23;20091;-75
2022/09/18 11:08:42;;;;;;;3.50;3.25;;;18.20;99.90;;;;;;6150162;23;20036;-74
2022/09/18 11:11:29;;;;;;;4.72;3.33;;;18.30;99.90;;;;;;6148004;23;20025;-80
2022/09/18 11:14:04;;;;;;;6.97;3.53;;;18.30;99.90;;;;;;6124759;23;20017;-79
2022/09/18 11:16:50;;;;;;;4.35;3.60;;;18.20;99.90;;;;;;6150310;23;20108;-75
2022/09/18 11:19:28;;;;;;;5.10;3.55;;;18.10;99.90;;;;;;6149670;23;20479;-74
2022/09/18 11:22:05;;;;;;;3.67;3.38;;;17.90;99.90;;;;;;6154606;23;20032;-74
2022/09/18 11:24:43;;;;;;;;;;;17.80;99.90;;;;;;6130901;23;20017;-74
2022/09/18 11:27:21;;;;;;;3.15;2.72;;;17.70;99.90;;;;;;6180215;23;19999;-74
2022/09/18 11:29:51;;;;;;;4.20;2.95;;;17.40;99.90;;;;;;6126011;23;20035;-75
2022/09/18 11:32:24;;;;;;;5.97;3.38;;;17.40;99.90;;;;;;6150974;23;20029;-73
2022/09/18 11:34:56;;;;;;;4.38;3.53;;;17.60;99.90;;;;;;6150285;23;20025;-75
2022/09/18 11:37:39;;;;;;;4.53;3.10;;;17.90;99.90;;;;;;6151241;23;20027;-79
2022/09/18 11:40:22;;;;;;;4.10;2.50;;;18.10;99.90;;;;;;6174607;23;20025;-73
2022/09/18 11:42:54;;;;;;;2.30;2.10;;;18.30;99.90;;;;;;6150798;23;20237;-79
2022/09/18 11:45:43;;;;;;;4.20;2.88;;;18.40;99.90;;;;;;6150929;23;20108;-78
2022/09/18 11:48:27;;;;;;;2.50;2.30;;;18.60;99.90;;;;;;6151631;23;20025;-79
2022/09/18 11:51:00;;;;;;;4.78;3.90;;;18.60;99.90;;;;;;6177241;23;20025;-81
2022/09/18 11:53:32;;;;;;;3.38;3.08;;;18.30;99.90;;;;;;6151892;23;20021;-74
2022/09/18 11:56:06;;;;;;;5.28;2.72;;;18.20;99.90;;;;;;6150502;23;20031;-74
2022/09/18 11:58:52;;;;;;;3.33;2.17;;;18.40;99.90;;;;;;6151198;23;20095;-81
2022/09/18 12:01:28;;;;;;;2.15;2.05;;;18.80;99.90;;;;;;6151164;23;20025;-80
2022/09/18 12:04:07;;;;;;;2.05;1.85;;;19.20;99.90;;;;;;6177395;23;20120;-76
2022/09/18 12:06:49;;;;;;;2.17;1.55;;;19.80;99.90;;;;;;6150239;23;20087;-75
2022/09/18 12:09:23;;;;;;;5.65;2.10;;;20.20;99.90;;;;;;6150346;23;20025;-74
2022/09/18 12:12:02;;;;;;;1.70;1.60;;;20.50;99.90;;;;;;6150965;23;20021;-75
2022/09/18 12:14:40;;;;;;;2.20;2.00;;;20.30;99.90;;;;;;6124169;23;20075;-74
2022/09/18 12:17:28;;;;;;;4.68;2.00;;;19.70;99.90;;;;;;6150184;23;20120;-74
2022/09/18 12:20:01;;;;;;;3.05;1.70;;;19.20;99.90;;;;;;6125661;23;20083;-75
2022/09/18 12:22:39;;;;;;;2.63;1.67;;;18.90;99.90;;;;;;6148969;23;20300;-75
2022/09/18 12:25:14;;;;;;;3.35;1.80;;;19.00;99.90;;;;;;6150325;23;20029;-74
2022/09/18 12:28:29;;;;;;;2.28;2.08;;;19.10;99.90;;;;;;6174529;23;20128;-75
2022/09/18 12:31:09;;;;;;;3.63;1.60;;;19.10;99.90;;;;;;6147788;23;20417;-75
2022/09/18 12:33:46;;;;;;;2.20;1.55;;;19.00;99.90;;;;;;6175356;23;20474;-75
2022/09/18 12:36:49;;;;;;;5.03;2.13;;;18.90;99.90;;;;;;6177891;23;20028;-82
2022/09/18 12:39:35;;;;;;;2.20;1.98;;;19.10;99.90;;;;;;6124344;23;20052;-83
2022/09/18 12:42:18;;;;;;;3.10;1.92;;;19.10;99.90;;;;;;6177497;23;20025;-81
2022/09/18 12:45:29;;;;;;;2.90;2.05;;;19.00;99.90;;;;;;6178883;23;20060;-74
2022/09/18 12:48:26;;;;;;;3.20;2.00;;;18.80;99.90;;;;;;6110869;23;20587;-76
2022/09/18 12:51:24;;;;;;;3.78;2.08;;;18.60;99.90;;;;;;6151055;23;20045;-80
2022/09/18 12:54:16;;;;;;;1.85;1.70;;;18.50;99.90;;;;;;6176853;23;20458;-75
2022/09/18 12:57:02;;;;;;;3.65;2.10;;;18.20;99.90;;;;;;6177767;23;20021;-79
2022/09/18 12:59:49;;;;;;;1.60;1.50;;;18.00;99.90;;;;;;6177010;23;20079;-76
2022/09/18 13:02:56;;;;;;;3.05;1.85;;;17.70;99.90;;;;;;6125194;23;20036;-79
2022/09/18 13:05:31;;;;;;;3.00;1.73;;;17.40;99.90;;;;;;6156264;23;20091;-82
2022/09/18 13:08:05;;;;;;;1.67;1.58;;;17.20;99.90;;;;;;6175808;23;20017;-81
2022/09/18 13:10:38;;;;;;;2.33;2.13;;;17.00;99.90;;;;;;6149879;23;20059;-73
2022/09/18 13:13:14;;;;;;;3.38;2.13;;;16.90;99.90;;;;;;6151503;23;20056;-74
2022/09/18 13:15:47;;;;;;;2.85;1.83;;;16.90;99.90;;;;;;6177099;23;20025;-81
2022/09/18 13:18:32;;;;;;;2.30;2.08;;;16.90;99.90;;;;;;6177209;23;20052;-80
2022/09/18 13:21:08;;;;;;;2.65;1.80;;;17.10;99.90;;;;;;6176333;23;20541;-80
2022/09/18 13:23:39;;;;;;;1.85;1.50;;;18.90;99.90;;;;;;6178041;23;20032;-81
2022/09/18 13:26:11;;;;;;;2.83;2.30;;;19.90;99.90;;;;;;6152009;23;20025;-74
2022/09/18 13:28:41;;;;;;;3.15;2.13;;;19.80;99.90;;;;;;6177522;23;20025;-74
2022/09/18 13:31:34;;;;;;;2.08;1.88;;;19.40;99.90;;;;;;6151168;23;20088;-76